Time;durP1;ratioP1;P1;durP2;ratioP2;P2;SDS_P1;SDS_P2;PMS_P1;PMS_P2;Temp;Humidity;BMP_temperature;BMP_pressure;BME280_temperature;BME280_humidity;BME280_pressure;Samples;Min_cycle;Max_cycle;Signal;HPM_P1;HPM_P2
2021/10/05 00:01:09;;;;;;;4.15;1.40;;;;;;;19.60;42.63;101015.25;5067043;28;20096;-61
2021/10/05 00:03:34;;;;;;;2.67;0.50;;;;;;;19.64;42.25;101026.59;5046716;28;20156;-61
2021/10/05 00:06:00;;;;;;;2.13;0.30;;;;;;;19.61;42.39;101022.38;5048417;28;20048;-61
2021/10/05 00:08:25;;;;;;;3.95;0.60;;;;;;;19.60;42.86;101017.97;5064660;28;20029;-61
2021/10/05 00:10:51;;;;;;;1.92;0.70;;;;;;;19.59;42.67;101008.16;5064879;28;20043;-61
2021/10/05 00:13:17;;;;;;;0.55;0.55;;;;;;;19.56;43.23;100988.63;5058651;28;20063;-61
2021/10/05 00:15:42;;;;;;;1.38;0.40;;;;;;;19.58;42.68;100995.56;5057312;28;20033;-61
2021/10/05 00:18:07;;;;;;;2.53;0.70;;;;;;;19.58;42.58;100995.56;5057005;28;20432;-60
2021/10/05 00:20:33;;;;;;;5.05;0.82;;;;;;;19.52;42.98;100979.16;5039080;28;20032;-61
2021/10/05 00:22:59;;;;;;;1.48;0.57;;;;;;;19.61;42.88;100981.63;5056950;28;20472;-61
2021/10/05 00:25:24;;;;;;;1.77;0.85;;;;;;;19.66;43.21;100981.06;5056842;28;20021;-61
2021/10/05 00:27:50;;;;;;;2.10;0.95;;;;;;;19.69;43.34;100977.97;5021274;28;20029;-61
2021/10/05 00:30:15;;;;;;;2.53;1.10;;;;;;;19.71;43.28;100974.03;5057020;28;20079;-61
2021/10/05 00:32:40;;;;;;;3.00;0.82;;;;;;;19.75;42.99;100969.94;5057094;28;20036;-61
2021/10/05 00:35:06;;;;;;;1.85;1.08;;;;;;;19.78;43.13;100963.28;5056628;28;20021;-61
2021/10/05 00:37:32;;;;;;;3.40;1.20;;;;;;;19.82;43.12;100964.56;5039033;28;20029;-60
2021/10/05 00:39:57;;;;;;;1.52;0.80;;;;;;;19.81;43.45;100957.47;5056863;28;20143;-61
2021/10/05 00:42:22;;;;;;;1.58;0.60;;;;;;;19.89;42.99;100968.25;5056783;28;20055;-60
2021/10/05 00:44:49;;;;;;;1.60;0.50;;;;;;;19.92;43.11;100958.88;5056912;28;20096;-60
2021/10/05 00:47:15;;;;;;;0.90;0.45;;;;;;;19.93;43.29;100955.16;5038925;28;20051;-61
2021/10/05 00:49:42;;;;;;;2.42;0.43;;;;;;;19.95;43.53;100948.47;5056466;28;20124;-61
2021/10/05 00:52:08;;;;;;;3.70;0.50;;;;;;;19.97;43.27;100951.84;5056184;28;20031;-61
2021/10/05 00:54:36;;;;;;;2.45;0.60;;;;;;;19.99;43.29;100943.53;5055944;28;20013;-61
2021/10/05 00:57:02;;;;;;;2.10;0.47;;;;;;;20.00;43.81;100948.75;5055838;28;20033;-61
2021/10/05 00:59:30;;;;;;;0.63;0.55;;;;;;;20.01;43.55;100946.88;5055849;28;20525;-60
2021/10/05 01:01:55;;;;;;;0.70;0.40;;;;;;;20.04;43.13;100941.94;5055643;28;20029;-61
2021/10/05 01:04:21;;;;;;;1.73;0.40;;;;;;;20.05;43.19;100942.75;5021705;28;20028;-61
2021/10/05 01:06:59;;;;;;;2.38;0.75;;;;;;;20.05;43.08;100932.72;5038348;28;20025;-61
2021/10/05 01:09:25;;;;;;;0.22;0.22;;;;;;;20.05;43.35;100935.44;5056179;28;20025;-61
2021/10/05 01:11:51;;;;;;;3.17;0.45;;;;;;;20.06;43.62;100934.41;5055641;28;20048;-61
2021/10/05 01:14:16;;;;;;;0.65;0.30;;;;;;;20.07;43.63;100919.75;5056139;28;20033;-60
2021/10/05 01:16:43;;;;;;;1.55;0.35;;;;;;;20.03;43.64;100913.03;5055541;28;20052;-61
2021/10/05 01:19:08;;;;;;;0.20;0.20;;;;;;;20.12;42.89;100916.50;5021046;28;20071;-61
2021/10/05 01:21:34;;;;;;;0.45;0.25;;;;;;;20.12;43.08;100922.78;5055610;28;20028;-61
2021/10/05 01:24:09;;;;;;;1.33;0.22;;;;;;;20.13;43.43;100921.75;5055235;28;20025;-60
2021/10/05 01:26:35;;;;;;;3.67;1.10;;;;;;;20.14;42.89;100917.16;5055448;28;20350;-61
2021/10/05 01:29:02;;;;;;;0.52;0.38;;;;;;;20.15;43.02;100910.69;5037873;28;20090;-60
2021/10/05 01:31:30;;;;;;;0.57;0.20;;;;;;;20.17;43.31;100914.91;5038219;28;20473;-61
2021/10/05 01:33:56;;;;;;;1.30;0.20;;;;;;;20.18;43.18;100908.41;5055054;28;20469;-61
2021/10/05 01:36:21;;;;;;;2.72;0.30;;;;;;;20.18;43.67;100894.00;5055889;28;20032;-61
2021/10/05 01:38:47;;;;;;;1.30;0.20;;;;;;;20.18;43.51;100900.25;5054957;28;20021;-61
2021/10/05 01:41:13;;;;;;;1.85;0.38;;;;;;;20.19;43.04;100901.94;5055327;28;20076;-61
2021/10/05 01:43:38;;;;;;;2.80;0.30;;;;;;;20.17;42.89;100890.41;5055418;28;20013;-61
2021/10/05 01:46:04;;;;;;;0.63;0.30;;;;;;;20.20;43.21;100884.59;5037287;28;20033;-61
2021/10/05 01:48:29;;;;;;;4.78;0.50;;;;;;;20.18;43.30;100872.22;5054959;28;20028;-61
2021/10/05 01:50:54;;;;;;;0.57;0.30;;;;;;;20.18;42.88;100867.59;5055043;28;20083;-61
2021/10/05 01:53:20;;;;;;;1.17;0.40;;;;;;;20.17;43.41;100871.38;5055130;28;20024;-60
2021/10/05 01:55:45;;;;;;;0.52;0.47;;;;;;;20.17;43.46;100865.09;5055048;28;20025;-61
2021/10/05 01:58:10;;;;;;;1.20;0.50;;;;;;;20.16;42.89;100855.22;5055325;28;20024;-61
2021/10/05 02:00:36;;;;;;;2.20;0.40;;;;;;;20.15;43.50;100862.56;5020540;28;20115;-61
2021/10/05 02:03:01;;;;;;;1.23;0.50;;;;;;;20.14;43.13;100850.00;5054467;28;20047;-61
2021/10/05 02:05:27;;;;;;;3.70;0.40;;;;;;;20.15;43.12;100846.25;5054873;28;20071;-61
2021/10/05 02:07:52;;;;;;;0.80;0.50;;;;;;;20.12;43.27;100843.91;5054974;28;20028;-60
2021/10/05 02:10:17;;;;;;;2.50;0.45;;;;;;;20.12;43.21;100838.47;5055106;28;20029;-61
2021/10/05 02:12:43;;;;;;;0.40;0.38;;;;;;;20.09;43.08;100830.69;5054925;28;20056;-61
2021/10/05 02:15:09;;;;;;;1.35;0.60;;;;;;;20.10;43.46;100826.09;5037361;28;20037;-61
2021/10/05 02:17:34;;;;;;;5.63;0.95;;;;;;;20.09;43.02;100838.00;5055372;28;20060;-60
2021/10/05 02:19:59;;;;;;;2.28;0.75;;;;;;;20.06;42.99;100831.06;5054992;28;20099;-60
2021/10/05 02:22:25;;;;;;;2.45;0.90;;;;;;;20.05;43.18;100823.94;5055169;28;20021;-61
2021/10/05 02:24:50;;;;;;;2.75;0.80;;;;;;;19.99;43.46;100823.88;5037352;28;20025;-61
2021/10/05 02:27:17;;;;;;;1.05;0.60;;;;;;;20.02;43.09;100829.75;5054710;28;20465;-60
2021/10/05 02:29:44;;;;;;;2.28;0.77;;;;;;;19.96;43.59;100814.19;5055126;28;20029;-61
2021/10/05 02:32:11;;;;;;;1.65;0.50;;;;;;;20.01;43.21;100811.75;5054993;28;20530;-61
2021/10/05 02:34:37;;;;;;;0.95;0.32;;;;;;;20.02;43.32;100812.59;5055368;28;20021;-61
2021/10/05 02:37:03;;;;;;;1.17;0.40;;;;;;;20.02;43.22;100809.88;5054775;28;20031;-60
2021/10/05 02:39:29;;;;;;;1.10;0.30;;;;;;;20.00;43.69;100804.63;5037265;28;20021;-60
2021/10/05 02:41:54;;;;;;;0.45;0.40;;;;;;;20.02;43.26;100802.56;5037276;28;20032;-61
2021/10/05 02:44:19;;;;;;;1.35;0.20;;;;;;;20.06;43.54;100801.16;5054978;28;20017;-61
2021/10/05 02:46:46;;;;;;;0.57;0.25;;;;;;;20.05;43.08;100785.84;5054599;28;20116;-60
2021/10/05 02:49:12;;;;;;;0.30;0.30;;;;;;;20.12;43.07;100791.38;5054089;28;20447;-61
2021/10/05 02:51:37;;;;;;;1.55;0.40;;;;;;;20.13;42.74;100783.00;5056573;28;20083;-61
2021/10/05 02:54:02;;;;;;;1.20;0.52;;;;;;;20.16;42.48;100782.63;5057761;28;20029;-61
2021/10/05 02:56:28;;;;;;;0.40;0.40;;;;;;;20.19;43.33;100782.25;5058438;28;20029;-61
2021/10/05 02:58:53;;;;;;;0.60;0.20;;;;;;;20.17;43.09;100768.00;5024059;28;20021;-60
2021/10/05 03:01:22;;;;;;;4.05;0.40;;;;;;;20.17;43.41;100773.44;5061348;28;20031;-61
2021/10/05 03:06:23;;;;;;;1.25;0.50;;;;;;;20.17;43.36;100762.56;5621390;22;20048;-60
2021/10/05 03:08:52;;;;;;;3.03;0.68;;;;;;;20.16;43.23;100755.44;5040868;28;20522;-60
2021/10/05 03:11:18;;;;;;;2.65;0.40;;;;;;;20.15;43.13;100759.22;5058664;28;20023;-61
2021/10/05 03:13:44;;;;;;;2.55;0.43;;;;;;;20.15;43.46;100759.22;5058167;28;20104;-60
2021/10/05 03:16:09;;;;;;;0.60;0.35;;;;;;;20.14;43.31;100757.50;5040427;28;20028;-61
2021/10/05 03:18:35;;;;;;;0.35;0.30;;;;;;;20.12;43.05;100743.28;5040337;28;20025;-60
2021/10/05 03:21:00;;;;;;;3.30;0.50;;;;;;;20.15;43.61;100753.78;5041027;28;20052;-60
2021/10/05 03:23:26;;;;;;;1.42;0.40;;;;;;;20.16;43.18;100743.72;5058469;28;20086;-61
2021/10/05 03:25:52;;;;;;;1.23;0.60;;;;;;;20.17;43.33;100738.09;5040198;28;20056;-61
2021/10/05 03:28:17;;;;;;;1.17;0.65;;;;;;;20.17;42.63;100727.22;5058182;28;20059;-61
2021/10/05 03:30:43;;;;;;;1.95;0.50;;;;;;;20.16;43.02;100725.50;5058199;28;20036;-61
2021/10/05 03:33:08;;;;;;;0.45;0.38;;;;;;;20.11;43.38;100736.13;5058563;28;20028;-61
2021/10/05 03:35:34;;;;;;;3.13;0.50;;;;;;;20.12;43.30;100734.25;5040748;28;20049;-61
2021/10/05 03:38:01;;;;;;;0.40;0.30;;;;;;;20.09;43.06;100721.91;5058333;28;20596;-60
2021/10/05 03:40:26;;;;;;;2.65;0.68;;;;;;;20.10;43.23;100739.06;5058370;28;20048;-61
2021/10/05 03:42:51;;;;;;;2.80;0.40;;;;;;;20.11;43.24;100730.69;5040372;28;20025;-61
2021/10/05 03:45:17;;;;;;;2.38;0.50;;;;;;;20.10;43.32;100731.72;5058147;28;20120;-60
2021/10/05 03:47:42;;;;;;;0.95;0.40;;;;;;;20.07;43.38;100713.06;5057769;28;20083;-61
2021/10/05 03:50:09;;;;;;;3.00;0.50;;;;;;;20.07;43.26;100702.19;5057730;28;20021;-61
2021/10/05 03:52:35;;;;;;;0.70;0.50;;;;;;;20.07;42.84;100702.19;5057816;28;20107;-61
2021/10/05 03:55:00;;;;;;;0.57;0.47;;;;;;;20.05;43.39;100689.81;5040286;28;20105;-61
2021/10/05 03:57:26;;;;;;;1.30;0.30;;;;;;;19.97;42.58;100679.91;5058207;28;20029;-61
2021/10/05 03:59:51;;;;;;;0.90;0.35;;;;;;;20.00;43.29;100679.53;5039895;28;20017;-61
2021/10/05 04:02:16;;;;;;;4.85;0.43;;;;;;;19.98;42.62;100687.06;5056506;28;20029;-61
2021/10/05 04:04:42;;;;;;;0.82;0.40;;;;;;;19.95;43.17;100670.28;5039852;28;20040;-60
2021/10/05 04:07:07;;;;;;;4.70;0.60;;;;;;;19.95;43.27;100676.56;5057321;28;20049;-60
2021/10/05 04:09:32;;;;;;;0.80;0.40;;;;;;;19.93;43.33;100665.03;5057940;28;20024;-60
2021/10/05 04:11:58;;;;;;;0.63;0.43;;;;;;;19.88;43.03;100664.75;5057248;28;20022;-60
2021/10/05 04:14:23;;;;;;;0.60;0.40;;;;;;;19.90;43.49;100668.16;5057598;28;20036;-60
2021/10/05 04:16:48;;;;;;;1.40;1.08;;;;;;;19.88;43.26;100659.31;5040102;28;20068;-60
2021/10/05 04:19:14;;;;;;;1.25;0.50;;;;;;;19.86;43.54;100661.41;5057579;28;20057;-60
2021/10/05 04:21:39;;;;;;;1.15;0.55;;;;;;;19.81;43.25;100657.59;5057620;28;20020;-60
2021/10/05 04:24:05;;;;;;;0.55;0.30;;;;;;;19.79;43.59;100659.66;5039903;28;20016;-61
2021/10/05 04:26:30;;;;;;;0.40;0.35;;;;;;;19.77;43.43;100654.41;5057427;28;20028;-61
2021/10/05 04:28:55;;;;;;;1.20;0.45;;;;;;;19.73;43.23;100645.81;5059453;28;20075;-61
2021/10/05 04:31:21;;;;;;;0.82;0.30;;;;;;;19.72;43.60;100643.28;5058586;28;20025;-61
2021/10/05 04:33:46;;;;;;;0.55;0.38;;;;;;;19.71;43.76;100636.13;5056795;28;20034;-60
2021/10/05 04:36:12;;;;;;;0.85;0.52;;;;;;;19.69;43.57;100632.78;5056900;28;20055;-60
2021/10/05 04:38:37;;;;;;;2.13;0.47;;;;;;;19.68;43.63;100631.13;5038970;28;20078;-60
2021/10/05 04:41:02;;;;;;;0.80;0.40;;;;;;;19.67;43.71;100629.41;5056949;28;20031;-61
2021/10/05 04:43:28;;;;;;;0.88;0.40;;;;;;;19.61;43.95;100609.28;5056731;28;20032;-60
2021/10/05 04:45:53;;;;;;;2.35;0.52;;;;;;;19.65;43.73;100621.44;5056905;28;20069;-60
2021/10/05 04:48:19;;;;;;;0.95;0.40;;;;;;;19.63;43.73;100623.53;5056824;28;20163;-60
2021/10/05 04:50:44;;;;;;;1.90;0.85;;;;;;;19.62;43.73;100615.56;5038929;28;20473;-61
2021/10/05 04:53:10;;;;;;;2.08;0.40;;;;;;;19.59;44.16;100615.97;5056333;28;20021;-61
2021/10/05 04:55:37;;;;;;;2.17;0.82;;;;;;;19.59;43.77;100619.53;5056109;28;20021;-61
2021/10/05 04:58:03;;;;;;;1.70;0.47;;;;;;;19.58;44.09;100615.13;5056178;28;20040;-60
2021/10/05 05:00:28;;;;;;;0.90;0.50;;;;;;;19.56;43.73;100610.91;5056114;28;20021;-60
2021/10/05 05:02:53;;;;;;;4.50;0.50;;;;;;;19.54;43.84;100604.84;5056163;28;20032;-60
2021/10/05 05:05:19;;;;;;;1.60;0.60;;;;;;;19.52;43.47;100601.44;5056048;28;20047;-61
2021/10/05 05:07:44;;;;;;;3.10;0.80;;;;;;;19.48;43.88;100602.88;5056026;28;20052;-61
2021/10/05 05:10:09;;;;;;;1.27;0.60;;;;;;;19.44;43.52;100596.13;5056129;28;20021;-61
2021/10/05 05:12:35;;;;;;;1.38;0.43;;;;;;;19.43;43.81;100594.47;5055992;28;20478;-61
2021/10/05 05:15:01;;;;;;;1.00;0.50;;;;;;;19.40;43.82;100592.94;5055528;28;20082;-61
2021/10/05 05:17:26;;;;;;;2.05;0.40;;;;;;;19.36;44.28;100594.34;5055595;28;20039;-61
2021/10/05 05:19:52;;;;;;;2.33;0.75;;;;;;;19.36;44.13;100588.06;5055516;28;20021;-60
2021/10/05 05:22:18;;;;;;;0.68;0.40;;;;;;;19.37;43.85;100584.34;5055470;28;20017;-60
2021/10/05 05:24:43;;;;;;;1.23;0.75;;;;;;;19.36;44.04;100577.19;5046245;28;20029;-59
2021/10/05 05:27:08;;;;;;;0.68;0.40;;;;;;;19.35;44.25;100578.22;5034837;28;20029;-62
2021/10/05 05:29:34;;;;;;;2.08;1.33;;;;;;;19.34;43.24;100569.25;5035732;28;20057;-62
2021/10/05 05:31:59;;;;;;;0.50;0.50;;;;;;;19.34;44.13;100569.25;5035934;28;20033;-62
2021/10/05 05:34:25;;;;;;;2.28;0.70;;;;;;;19.37;43.87;100568.03;5017744;28;20021;-61
2021/10/05 05:36:52;;;;;;;0.65;0.40;;;;;;;19.37;43.83;100562.59;5018048;28;20033;-61
2021/10/05 05:39:17;;;;;;;0.68;0.68;;;;;;;19.38;44.32;100558.81;5035076;28;20040;-61
2021/10/05 05:41:46;;;;;;;3.88;0.40;;;;;;;19.39;44.20;100549.69;5017304;28;20029;-61
2021/10/05 05:44:13;;;;;;;1.23;0.73;;;;;;;19.39;43.85;100545.09;5034799;28;20029;-61
2021/10/05 05:46:39;;;;;;;1.08;0.95;;;;;;;19.36;43.73;100545.47;5017352;28;20068;-60
2021/10/05 05:49:04;;;;;;;2.47;0.40;;;;;;;19.36;44.14;100539.19;5034983;28;20021;-60
2021/10/05 05:51:29;;;;;;;1.55;0.90;;;;;;;19.34;43.98;100535.81;5034866;28;20052;-60
2021/10/05 05:53:55;;;;;;;2.72;0.85;;;;;;;19.37;43.54;100541.72;5034964;28;20032;-61
2021/10/05 05:56:20;;;;;;;1.10;0.52;;;;;;;19.39;44.04;100544.25;5000990;28;20621;-60
2021/10/05 05:58:48;;;;;;;2.05;0.80;;;;;;;19.39;43.78;100536.09;5034708;28;20025;-60
2021/10/05 06:01:14;;;;;;;0.40;0.40;;;;;;;19.38;43.84;100532.53;5034795;28;20030;-61
2021/10/05 06:03:40;;;;;;;2.90;0.43;;;;;;;19.40;44.12;100529.66;5035055;28;20028;-60
2021/10/05 06:06:05;;;;;;;0.65;0.60;;;;;;;19.41;44.13;100536.75;5017088;28;20054;-60
2021/10/05 06:08:30;;;;;;;0.95;0.40;;;;;;;19.39;44.17;100528.81;5035140;28;20381;-60
2021/10/05 06:10:56;;;;;;;2.55;0.50;;;;;;;19.37;44.13;100524.56;5034767;28;20022;-60
2021/10/05 06:13:21;;;;;;;0.88;0.60;;;;;;;19.41;43.79;100531.31;5017162;28;20521;-61
2021/10/05 06:15:46;;;;;;;1.75;0.70;;;;;;;19.44;44.49;100530.94;5035193;28;20377;-60
2021/10/05 06:18:12;;;;;;;1.13;0.57;;;;;;;19.36;44.44;100512.00;5035568;28;20363;-60
2021/10/05 06:20:37;;;;;;;2.83;0.75;;;;;;;19.46;44.22;100521.53;5036762;28;20025;-61
2021/10/05 06:23:02;;;;;;;3.17;0.60;;;;;;;19.47;44.04;100522.41;5055315;28;20017;-61
2021/10/05 06:25:29;;;;;;;2.85;0.50;;;;;;;19.49;44.08;100514.88;5055487;28;20082;-61
2021/10/05 06:27:56;;;;;;;2.28;0.68;;;;;;;19.49;43.78;100523.88;5059575;28;20477;-61
2021/10/05 06:30:22;;;;;;;0.47;0.47;;;;;;;19.51;44.32;100521.84;5059263;28;20024;-60
2021/10/05 06:32:53;;;;;;;0.45;0.40;;;;;;;19.52;43.88;100528.06;5059562;28;20071;-61
2021/10/05 06:35:20;;;;;;;1.50;0.77;;;;;;;19.51;43.51;100513.69;5058453;28;20028;-60
2021/10/05 06:37:48;;;;;;;2.58;0.68;;;;;;;19.47;44.15;100520.53;5058326;28;20028;-61
2021/10/05 06:40:14;;;;;;;1.33;0.55;;;;;;;19.45;44.29;100516.31;5059184;28;20107;-60
2021/10/05 06:42:39;;;;;;;2.25;0.90;;;;;;;19.34;44.14;100501.34;5059223;28;20029;-60
2021/10/05 06:45:06;;;;;;;2.97;0.55;;;;;;;19.48;44.43;100516.78;5058549;28;20155;-61
2021/10/05 06:47:31;;;;;;;1.60;1.05;;;;;;;19.49;43.92;100512.16;5059048;28;20025;-60
2021/10/05 06:49:58;;;;;;;0.80;0.70;;;;;;;19.54;43.85;100510.53;5059014;28;20075;-60
2021/10/05 06:52:23;;;;;;;1.35;0.60;;;;;;;19.72;43.28;100512.81;5059052;28;20469;-60
2021/10/05 06:54:49;;;;;;;2.20;0.70;;;;;;;19.71;43.65;100503.81;5058595;28;20033;-61
2021/10/05 06:57:15;;;;;;;1.25;0.85;;;;;;;19.92;43.83;100513.81;5057957;28;20025;-61
2021/10/05 06:59:40;;;;;;;5.05;0.70;;;;;;;20.14;43.57;100517.31;5057680;28;20531;-61
2021/10/05 07:02:06;;;;;;;2.22;0.80;;;;;;;20.36;43.42;100501.78;5057929;28;20381;-61
2021/10/05 07:04:32;;;;;;;3.42;0.88;;;;;;;20.61;43.34;100501.09;5039189;28;20020;-61
2021/10/05 07:06:57;;;;;;;3.20;0.82;;;;;;;20.85;42.64;100502.47;5057122;28;20067;-60
2021/10/05 07:09:23;;;;;;;1.02;0.57;;;;;;;20.98;42.55;100505.22;5057492;28;20044;-60
2021/10/05 07:11:48;;;;;;;0.73;0.43;;;;;;;20.89;43.09;100501.84;5057154;28;20021;-61
2021/10/05 07:14:13;;;;;;;2.15;1.00;;;;;;;21.11;43.00;100494.38;5039238;28;20033;-61
2021/10/05 07:16:39;;;;;;;0.73;0.60;;;;;;;21.30;42.32;100493.59;5056996;28;20393;-63
2021/10/05 07:19:04;;;;;;;3.72;0.80;;;;;;;21.44;42.17;100483.53;5056886;28;20027;-61
2021/10/05 07:21:29;;;;;;;0.75;0.43;;;;;;;21.31;43.10;100489.84;5056899;28;20473;-61
2021/10/05 07:23:55;;;;;;;2.40;0.70;;;;;;;21.25;43.01;100479.75;5056926;28;20025;-60
2021/10/05 07:26:20;;;;;;;3.47;0.57;;;;;;;21.45;42.32;100477.91;5038887;28;20032;-61
2021/10/05 07:28:46;;;;;;;2.83;0.65;;;;;;;21.65;42.13;100468.88;5056486;28;20025;-60
2021/10/05 07:31:12;;;;;;;1.05;0.77;;;;;;;21.94;41.84;100469.31;5056268;28;20091;-60
2021/10/05 07:33:37;;;;;;;1.23;0.60;;;;;;;22.14;41.35;100474.75;5056122;28;20036;-61
2021/10/05 07:36:03;;;;;;;2.28;0.80;;;;;;;22.29;41.62;100467.16;5056233;28;20025;-62
2021/10/05 07:38:28;;;;;;;0.55;0.50;;;;;;;22.49;41.95;100467.94;5055495;28;20021;-61
2021/10/05 07:40:54;;;;;;;2.72;0.73;;;;;;;22.73;41.42;100457.34;5038088;28;20029;-61
2021/10/05 07:43:20;;;;;;;1.42;0.90;;;;;;;22.91;41.29;100455.59;5055882;28;20047;-60
2021/10/05 07:45:47;;;;;;;2.22;0.70;;;;;;;23.12;40.56;100451.69;5055698;28;20075;-61
2021/10/05 07:48:12;;;;;;;0.80;0.68;;;;;;;23.33;41.02;100445.88;5055831;28;20017;-61
2021/10/05 07:50:37;;;;;;;2.03;0.80;;;;;;;23.49;41.06;100436.31;5055951;28;20035;-61
2021/10/05 07:53:03;;;;;;;0.85;0.50;;;;;;;23.67;40.61;100442.66;5055772;28;20075;-61
2021/10/05 07:55:29;;;;;;;2.17;0.82;;;;;;;23.64;40.55;100432.19;5037829;28;20112;-61
2021/10/05 07:57:55;;;;;;;1.00;0.65;;;;;;;23.91;40.82;100434.66;5055552;28;20388;-61
2021/10/05 08:00:21;;;;;;;1.38;0.93;;;;;;;24.06;39.87;100438.75;5055552;28;20111;-61
2021/10/05 08:02:46;;;;;;;0.50;0.50;;;;;;;24.23;40.58;100433.53;5055583;28;20021;-62
2021/10/05 08:05:15;;;;;;;1.45;0.70;;;;;;;24.37;39.93;100424.09;5055387;28;20429;-61
2021/10/05 08:07:41;;;;;;;1.67;0.80;;;;;;;24.51;39.36;100406.41;5055222;28;20132;-61
2021/10/05 08:10:06;;;;;;;2.83;1.40;;;;;;;24.64;39.72;100398.03;5055226;28;20445;-61
2021/10/05 08:12:32;;;;;;;1.33;0.88;;;;;;;24.83;39.60;100396.13;5055298;28;20036;-61
2021/10/05 08:14:57;;;;;;;2.00;0.63;;;;;;;25.00;39.34;100388.06;5055020;28;20116;-62
2021/10/05 08:17:23;;;;;;;5.53;0.80;;;;;;;25.13;39.18;100385.13;5055216;28;20065;-61
2021/10/05 08:19:48;;;;;;;1.48;0.73;;;;;;;25.34;38.98;100387.31;5055332;28;20029;-61
2021/10/05 08:22:14;;;;;;;1.10;0.60;;;;;;;25.51;39.04;100377.38;5055184;28;20039;-61
2021/10/05 08:24:40;;;;;;;1.05;0.65;;;;;;;25.65;38.68;100370.56;5055002;28;20021;-61
2021/10/05 08:27:05;;;;;;;0.95;0.60;;;;;;;25.85;38.44;100378.44;5055011;28;20165;-62
2021/10/05 08:29:32;;;;;;;1.08;0.60;;;;;;;25.97;38.77;100365.50;5054968;28;20032;-61
2021/10/05 08:31:58;;;;;;;1.50;0.80;;;;;;;26.05;38.43;100360.50;5054975;28;20021;-61
2021/10/05 08:34:23;;;;;;;1.30;0.63;;;;;;;26.19;38.39;100373.97;5054840;28;20396;-61
2021/10/05 08:36:49;;;;;;;2.45;1.00;;;;;;;26.30;37.69;100364.91;5054598;28;20108;-61
2021/10/05 08:39:16;;;;;;;1.15;0.77;;;;;;;26.36;37.92;100358.41;5054654;28;20060;-61
2021/10/05 08:41:45;;;;;;;1.67;0.82;;;;;;;26.48;37.99;100361.97;5054598;28;20478;-61
2021/10/05 08:44:10;;;;;;;2.53;0.68;;;;;;;26.55;37.49;100360.72;5054578;28;20059;-60
2021/10/05 08:46:37;;;;;;;1.88;0.50;;;;;;;26.58;37.83;100345.66;5054743;28;20020;-62
2021/10/05 08:49:03;;;;;;;2.03;0.70;;;;;;;26.65;37.39;100357.34;5054177;28;20412;-61
2021/10/05 08:51:28;;;;;;;2.03;0.63;;;;;;;26.77;37.71;100352.66;5054844;28;20082;-61
2021/10/05 08:53:53;;;;;;;1.92;0.43;;;;;;;26.93;37.69;100343.63;5054464;28;20029;-61
2021/10/05 08:56:19;;;;;;;2.90;1.00;;;;;;;27.04;37.29;100350.13;5054581;28;20039;-61
2021/10/05 08:58:44;;;;;;;3.08;1.02;;;;;;;27.05;37.52;100318.81;5054458;28;20469;-61
2021/10/05 09:01:12;;;;;;;1.65;0.68;;;;;;;27.19;36.70;100318.22;5054607;28;20025;-62
2021/10/05 09:03:47;;;;;;;2.97;1.05;;;;;;;27.29;36.64;100305.72;5054362;28;20025;-61
2021/10/05 09:06:13;;;;;;;1.50;0.80;;;;;;;27.35;36.26;100305.53;5054321;28;20119;-61
2021/10/05 09:08:40;;;;;;;2.05;1.00;;;;;;;27.37;36.25;100305.28;5054270;28;20031;-61
2021/10/05 09:11:06;;;;;;;1.92;0.57;;;;;;;27.40;36.84;100304.78;5036691;28;20508;-61
2021/10/05 09:13:32;;;;;;;3.63;0.93;;;;;;;27.39;36.56;100303.94;5053916;28;20025;-61
2021/10/05 09:15:58;;;;;;;0.82;0.52;;;;;;;27.47;35.73;100298.03;5053996;28;20432;-61
2021/10/05 09:18:23;;;;;;;1.90;0.93;;;;;;;27.62;35.76;100287.25;5053884;28;20032;-61
2021/10/05 09:20:48;;;;;;;5.60;1.35;;;;;;;27.97;35.97;100286.09;5036194;28;20364;-61
2021/10/05 09:23:14;;;;;;;2.25;0.80;;;;;;;28.58;35.18;100284.88;5036464;28;20044;-60
2021/10/05 09:25:53;;;;;;;2.28;0.70;;;;;;;30.27;33.49;100282.78;5053919;28;20025;-59
2021/10/05 09:28:21;;;;;;;6.63;1.10;;;;;;;32.01;31.24;100267.56;5053955;28;20099;-59
2021/10/05 09:31:00;;;;;;;1.20;0.52;;;;;;;31.19;32.47;100258.84;5054070;28;20053;-59
2021/10/05 09:33:25;;;;;;;2.03;1.02;;;;;;;30.94;32.90;100255.00;5054135;28;20480;-59
2021/10/05 09:35:51;;;;;;;1.45;0.50;;;;;;;30.93;33.33;100260.81;5053777;28;20068;-59
2021/10/05 09:38:20;;;;;;;2.88;0.73;;;;;;;31.03;32.74;100258.03;5054448;28;20033;-59
2021/10/05 09:40:57;;;;;;;1.45;0.60;;;;;;;31.17;32.21;100241.69;5053776;28;20060;-59
2021/10/05 09:43:23;;;;;;;1.85;0.52;;;;;;;31.26;32.10;100251.09;5054005;28;20025;-59
2021/10/05 09:45:49;;;;;;;2.60;1.08;;;;;;;31.40;32.02;100257.72;5053743;28;20036;-59
2021/10/05 09:48:15;;;;;;;3.30;0.75;;;;;;;31.65;31.95;100250.22;5053680;28;20473;-59
2021/10/05 09:50:41;;;;;;;2.65;0.85;;;;;;;31.78;31.81;100242.41;5053572;28;20027;-60
2021/10/05 09:53:11;;;;;;;2.88;0.93;;;;;;;31.95;31.12;100242.88;5035992;28;20032;-59
2021/10/05 09:55:42;;;;;;;3.05;0.55;;;;;;;32.16;31.45;100230.63;5053547;28;20480;-59
2021/10/05 09:58:09;;;;;;;1.10;0.40;;;;;;;32.45;30.51;100252.88;5053579;28;20025;-60
2021/10/05 10:00:37;;;;;;;2.08;0.88;;;;;;;32.53;30.95;100225.38;5053211;28;20055;-59
2021/10/05 10:03:05;;;;;;;2.00;0.50;;;;;;;32.68;30.59;100222.53;5053471;28;20025;-59
2021/10/05 10:05:31;;;;;;;2.08;0.73;;;;;;;32.78;31.17;100214.09;5053613;28;20029;-60
2021/10/05 10:07:57;;;;;;;2.53;0.50;;;;;;;32.97;29.62;100227.28;5053122;28;20128;-60
2021/10/05 10:10:25;;;;;;;1.75;0.52;;;;;;;33.23;30.25;100209.28;5053437;28;20029;-59
2021/10/05 10:12:53;;;;;;;1.63;0.55;;;;;;;33.54;29.78;100210.59;5053455;28;20024;-59
2021/10/05 10:15:21;;;;;;;0.57;0.30;;;;;;;33.74;30.28;100221.50;5053328;28;20480;-59
2021/10/05 10:17:46;;;;;;;1.95;0.40;;;;;;;33.79;29.35;100209.47;5035659;28;20044;-60
2021/10/05 10:20:26;;;;;;;1.25;0.50;;;;;;;33.88;29.72;100194.63;5053049;28;20113;-60
2021/10/05 10:22:52;;;;;;;1.67;0.47;;;;;;;33.84;28.83;100199.13;5053030;28;20029;-59
2021/10/05 10:25:38;;;;;;;3.50;0.50;;;;;;;33.80;29.52;100200.03;5035433;28;20028;-60
2021/10/05 10:28:12;;;;;;;3.60;0.57;;;;;;;33.71;29.27;100194.31;5018457;28;20037;-60
2021/10/05 10:30:51;;;;;;;1.38;0.80;;;;;;;33.71;29.45;100199.03;5053026;28;20021;-60
2021/10/05 10:33:17;;;;;;;0.77;0.30;;;;;;;33.75;28.31;100183.41;5053197;28;20078;-60
2021/10/05 10:35:54;;;;;;;0.77;0.43;;;;;;;33.93;28.42;100190.94;5052895;28;20036;-60
2021/10/05 10:38:28;;;;;;;1.45;0.50;;;;;;;34.04;28.55;100186.06;5035395;28;20033;-60
2021/10/05 10:40:54;;;;;;;0.55;0.30;;;;;;;34.03;28.26;100201.13;5053476;28;20078;-60
2021/10/05 10:43:22;;;;;;;0.70;0.60;;;;;;;33.94;28.38;100171.19;5053148;28;20029;-60
2021/10/05 10:45:49;;;;;;;0.73;0.60;;;;;;;34.07;28.48;100180.75;5035533;28;20052;-59
2021/10/05 10:48:28;;;;;;;1.27;0.50;;;;;;;34.00;28.85;100190.59;5052951;28;20025;-60
2021/10/05 10:50:54;;;;;;;0.88;0.38;;;;;;;34.12;27.76;100183.47;5053033;28;20363;-60
2021/10/05 10:53:34;;;;;;;1.75;0.38;;;;;;;33.79;29.11;100174.19;5053085;28;20158;-59
2021/10/05 10:55:59;;;;;;;1.83;0.32;;;;;;;32.89;29.72;100180.72;5052773;28;20025;-60
2021/10/05 10:58:51;;;;;;;0.85;0.35;;;;;;;31.73;30.65;100189.78;5052809;28;20048;-60
2021/10/05 11:01:16;;;;;;;3.65;0.45;;;;;;;30.91;31.38;100199.34;5033217;28;20033;-60
2021/10/05 11:03:42;;;;;;;2.75;0.25;;;;;;;30.19;31.61;100186.56;5052916;28;20388;-59
2021/10/05 11:06:17;;;;;;;4.88;0.50;;;;;;;29.68;32.31;100176.44;5052871;28;20048;-59
2021/10/05 11:09:01;;;;;;;2.83;0.40;;;;;;;29.37;31.94;100184.59;5053064;28;20066;-61
2021/10/05 11:11:42;;;;;;;2.22;0.63;;;;;;;28.85;32.12;100178.16;5052886;28;20025;-59
2021/10/05 11:14:09;;;;;;;0.63;0.38;;;;;;;28.47;33.57;100175.63;5056220;28;20021;-59
2021/10/05 11:16:36;;;;;;;1.35;0.35;;;;;;;28.17;32.88;100167.88;5056345;28;20123;-59
2021/10/05 11:19:17;;;;;;;3.80;0.73;;;;;;;27.97;34.29;100171.25;5056103;28;20025;-61
2021/10/05 11:21:48;;;;;;;1.65;0.55;;;;;;;27.77;34.30;100175.69;5056227;28;20064;-61
2021/10/05 11:24:15;;;;;;;2.55;0.40;;;;;;;27.67;34.00;100163.47;5056321;28;20021;-61